createdAt,value
2018-05-26T00:00:37.842Z,95955
2018-05-26T00:03:09.012Z,95959
2018-05-26T00:05:40.229Z,95959
2018-05-26T00:08:11.421Z,95962
2018-05-26T00:10:42.490Z,95960
2018-05-26T00:13:13.688Z,95958
2018-05-26T00:15:44.827Z,95960
2018-05-26T00:18:15.994Z,95962
2018-05-26T00:20:47.216Z,95967
2018-05-26T00:23:18.339Z,95960
2018-05-26T00:25:49.561Z,95956
2018-05-26T00:28:20.802Z,95960
2018-05-26T00:30:51.903Z,95960
2018-05-26T00:33:23.051Z,95962
2018-05-26T00:35:54.235Z,95958
2018-05-26T00:38:25.354Z,95965
2018-05-26T00:40:56.556Z,95966
2018-05-26T00:43:27.817Z,95965
2018-05-26T00:45:58.967Z,95969
2018-05-26T00:48:30.258Z,95967
2018-05-26T00:51:01.488Z,95965
2018-05-26T00:53:32.779Z,95969
2018-05-26T00:56:04.285Z,95971
2018-05-26T00:58:35.503Z,95966
2018-05-26T01:01:06.725Z,95969
2018-05-26T01:03:38.012Z,95970
2018-05-26T01:06:09.085Z,95972
2018-05-26T01:08:40.837Z,95967
2018-05-26T01:11:11.994Z,95972
2018-05-26T01:13:43.115Z,95970
2018-05-26T01:16:14.257Z,95974
2018-05-26T01:18:45.317Z,95975
2018-05-26T01:21:16.452Z,95969
2018-05-26T01:23:47.581Z,95970
2018-05-26T01:26:18.838Z,95969
2018-05-26T01:28:49.963Z,95970
2018-05-26T01:31:21.097Z,95970
2018-05-26T01:33:52.270Z,95971
2018-05-26T01:36:23.416Z,95978
2018-05-26T01:38:54.602Z,95977
2018-05-26T01:41:25.986Z,95979
2018-05-26T01:43:57.023Z,95978
2018-05-26T01:46:28.127Z,95982
2018-05-26T01:48:59.286Z,95986
2018-05-26T01:51:30.439Z,95986
2018-05-26T01:54:01.632Z,95988
2018-05-26T01:56:32.764Z,95985
2018-05-26T01:59:16.517Z,95984
2018-05-26T02:01:47.899Z,95984
2018-05-26T02:04:19.038Z,95985
2018-05-26T02:06:50.061Z,95983
2018-05-26T02:09:21.525Z,95976
2018-05-26T02:11:52.564Z,95979
2018-05-26T02:14:23.681Z,95973
2018-05-26T02:16:54.809Z,95973
2018-05-26T02:19:25.970Z,95974
2018-05-26T02:21:57.033Z,95975
2018-05-26T02:24:28.109Z,95973
2018-05-26T02:26:59.161Z,95976
2018-05-26T02:29:30.296Z,95980
2018-05-26T02:32:01.495Z,95982
2018-05-26T02:34:32.661Z,95978
2018-05-26T02:37:03.826Z,95981
2018-05-26T02:39:35.038Z,95977
2018-05-26T02:42:06.315Z,95980
2018-05-26T02:44:37.429Z,95984
2018-05-26T02:47:08.577Z,95983
2018-05-26T02:49:40.356Z,95980
2018-05-26T02:52:11.470Z,95977
2018-05-26T02:54:42.753Z,95974
2018-05-26T02:57:13.838Z,95974
2018-05-26T02:59:45.182Z,95972
2018-05-26T03:02:16.216Z,95973
2018-05-26T03:04:52.455Z,95973
2018-05-26T03:07:28.426Z,95973
2018-05-26T03:10:05.095Z,95971
2018-05-26T03:12:41.088Z,95972
2018-05-26T03:15:11.388Z,95972
2018-05-26T03:17:42.694Z,95974
2018-05-26T03:20:13.850Z,95973
2018-05-26T03:22:45.083Z,95975
2018-05-26T03:25:16.331Z,95980
2018-05-26T03:27:47.369Z,95984
2018-05-26T03:30:18.582Z,95981
2018-05-26T03:32:49.783Z,95985
2018-05-26T03:35:21.058Z,95987
2018-05-26T03:37:52.116Z,95989
2018-05-26T03:40:23.349Z,95995
2018-05-26T03:42:54.382Z,95996
2018-05-26T03:45:25.501Z,95997
2018-05-26T03:47:56.640Z,96001
2018-05-26T03:50:27.754Z,96010
2018-05-26T03:52:59.131Z,96012
2018-05-26T03:59:47.017Z,96009
2018-05-26T04:02:18.266Z,96003
2018-05-26T04:04:49.345Z,96001
2018-05-26T04:07:20.331Z,95995
2018-05-26T04:09:51.462Z,95998
2018-05-26T04:12:22.558Z,95997
2018-05-26T04:14:53.648Z,95995
2018-05-26T04:17:24.647Z,95994
2018-05-26T04:19:55.744Z,95991
2018-05-26T04:22:26.806Z,96000
2018-05-26T04:24:58.101Z,96005
2018-05-26T04:27:29.122Z,96011
2018-05-26T04:30:00.501Z,96017
2018-05-26T04:32:31.770Z,96008
2018-05-26T04:35:02.973Z,96005
2018-05-26T04:37:34.206Z,96008
2018-05-26T04:40:05.293Z,96007
2018-05-26T04:42:36.299Z,96009
2018-05-26T04:45:07.366Z,96012
2018-05-26T04:47:38.639Z,96009
2018-05-26T04:50:09.693Z,96015
2018-05-26T04:52:40.776Z,96012
2018-05-26T04:55:11.856Z,96015
2018-05-26T04:57:42.985Z,96018
2018-05-26T05:00:14.068Z,96024
2018-05-26T05:02:45.313Z,96015
2018-05-26T05:05:16.350Z,96016
2018-05-26T05:07:47.472Z,96016
2018-05-26T05:10:18.648Z,96019
2018-05-26T05:12:49.655Z,96020
2018-05-26T05:15:20.760Z,96022
2018-05-26T05:17:51.853Z,96024
2018-05-26T05:20:23.122Z,96029
2018-05-26T05:22:54.211Z,96023
2018-05-26T05:25:25.400Z,96029
2018-05-26T05:27:56.633Z,96034
2018-05-26T05:30:27.979Z,96032
2018-05-26T05:32:58.947Z,96039
2018-05-26T05:35:30.448Z,96033
2018-05-26T05:38:01.581Z,96033
2018-05-26T05:40:33.257Z,96040
2018-05-26T05:43:04.484Z,96039
2018-05-26T05:45:35.526Z,96040
2018-05-26T05:48:06.707Z,96038
2018-05-26T05:50:37.786Z,96041
2018-05-26T05:53:09.057Z,96042
2018-05-26T05:55:41.672Z,96051
2018-05-26T05:58:12.819Z,96051
2018-05-26T06:00:44.053Z,96049
2018-05-26T06:03:15.263Z,96050
2018-05-26T06:05:46.398Z,96044
2018-05-26T06:08:17.492Z,96050
2018-05-26T06:10:48.525Z,96050
2018-05-26T06:13:19.529Z,96052
2018-05-26T06:15:50.574Z,96055
2018-05-26T06:18:21.617Z,96052
2018-05-26T06:20:53.925Z,96058
2018-05-26T06:23:24.990Z,96055
2018-05-26T06:25:56.744Z,96057
2018-05-26T06:28:28.072Z,96060
2018-05-26T06:30:59.513Z,96062
2018-05-26T06:33:30.620Z,96056
2018-05-26T06:36:01.903Z,96059
2018-05-26T06:38:33.242Z,96063
2018-05-26T06:41:04.390Z,96059
2018-05-26T06:43:35.758Z,96060
2018-05-26T06:46:06.735Z,96056
2018-05-26T06:48:38.677Z,96062
2018-05-26T06:51:09.962Z,96054
2018-05-26T06:53:41.312Z,96054
2018-05-26T06:56:12.863Z,96053
2018-05-26T06:58:46.298Z,96053
2018-05-26T07:01:17.938Z,96049
2018-05-26T07:03:49.345Z,96051
2018-05-26T07:06:20.652Z,96048
2018-05-26T07:08:52.871Z,96048
2018-05-26T07:11:24.323Z,96052
2018-05-26T07:13:55.536Z,96051
2018-05-26T07:16:29.038Z,96047
2018-05-26T07:19:00.833Z,96047
2018-05-26T07:21:32.043Z,96054
2018-05-26T07:24:03.175Z,96045
2018-05-26T07:26:34.350Z,96051
2018-05-26T07:29:05.646Z,96049
2018-05-26T07:31:36.866Z,96055
2018-05-26T07:34:08.552Z,96048
2018-05-26T07:36:40.577Z,96044
2018-05-26T07:39:13.254Z,96049
2018-05-26T07:41:45.031Z,96040
2018-05-26T07:44:16.423Z,96033
2018-05-26T07:46:47.834Z,96028
2018-05-26T07:49:19.738Z,96029
2018-05-26T07:51:51.055Z,96024
2018-05-26T07:54:22.746Z,96026
2018-05-26T07:56:54.531Z,96029
2018-05-26T07:59:25.997Z,96026
2018-05-26T08:01:57.506Z,96025
2018-05-26T08:04:29.068Z,96023
2018-05-26T08:07:00.469Z,96021
2018-05-26T08:09:31.963Z,96020
2018-05-26T08:12:03.535Z,96020
2018-05-26T08:14:34.996Z,96017
2018-05-26T08:17:06.654Z,96019
2018-05-26T08:19:37.999Z,96021
2018-05-26T08:22:09.612Z,96021
2018-05-26T08:24:41.220Z,96023
2018-05-26T08:27:12.737Z,96022
2018-05-26T08:29:44.232Z,96029
2018-05-26T08:32:15.752Z,96026
2018-05-26T08:34:47.008Z,96026
2018-05-26T08:37:18.468Z,96024
2018-05-26T08:39:49.914Z,96026
2018-05-26T08:42:21.226Z,96028
2018-05-26T08:44:52.530Z,96023
2018-05-26T08:47:23.781Z,96021
2018-05-26T08:49:55.206Z,96022
2018-05-26T08:52:26.521Z,96025
2018-05-26T08:54:57.797Z,96029
2018-05-26T08:57:29.063Z,96028
2018-05-26T09:00:00.251Z,96031
2018-05-26T09:02:31.627Z,96030
2018-05-26T09:05:02.979Z,96033
2018-05-26T09:07:34.227Z,96029
2018-05-26T09:10:05.584Z,96028
2018-05-26T09:12:36.862Z,96027
2018-05-26T09:15:08.227Z,96032
2018-05-26T09:17:39.855Z,96027
2018-05-26T09:20:11.665Z,96028
2018-05-26T09:22:42.981Z,96021
2018-05-26T09:25:14.567Z,96026
2018-05-26T09:27:45.745Z,96022
2018-05-26T09:30:17.059Z,96023
2018-05-26T09:32:48.273Z,96027
2018-05-26T09:35:19.304Z,96022
2018-05-26T09:37:50.635Z,96021
2018-05-26T09:40:22.538Z,96022
2018-05-26T09:42:53.849Z,96023
2018-05-26T09:45:25.045Z,96016
2018-05-26T09:47:56.482Z,96022
2018-05-26T09:50:27.764Z,96018
2018-05-26T09:52:58.877Z,96019
2018-05-26T09:55:30.312Z,96018
2018-05-26T09:58:01.930Z,96013
2018-05-26T10:00:33.341Z,96022
2018-05-26T10:03:04.782Z,96016
2018-05-26T10:05:35.923Z,96020
2018-05-26T10:08:07.061Z,96018
2018-05-26T10:10:38.150Z,96016
2018-05-26T10:13:09.350Z,96017
2018-05-26T10:15:40.547Z,96021
2018-05-26T10:18:11.838Z,96019
2018-05-26T10:20:43.222Z,96014
2018-05-26T10:23:15.822Z,96020
2018-05-26T10:25:47.283Z,96024
2018-05-26T10:28:18.559Z,96025
2018-05-26T10:30:49.808Z,96024
2018-05-26T10:33:20.787Z,96021
2018-05-26T10:35:52.062Z,96017
2018-05-26T10:38:23.142Z,96019
2018-05-26T10:40:54.327Z,96013
2018-05-26T10:43:25.797Z,96016
2018-05-26T10:46:05.670Z,96008
2018-05-26T10:48:36.819Z,96010
2018-05-26T10:51:08.058Z,96012
2018-05-26T10:53:38.990Z,96015
2018-05-26T10:56:10.706Z,96022
2018-05-26T10:58:41.831Z,96018
2018-05-26T11:01:13.104Z,96013
2018-05-26T11:03:44.346Z,96012
2018-05-26T11:06:15.364Z,96014
2018-05-26T11:08:46.531Z,96016
2018-05-26T11:11:17.639Z,96014
2018-05-26T11:13:48.819Z,96015
2018-05-26T11:16:19.869Z,96012
2018-05-26T11:18:53.220Z,96013
2018-05-26T11:21:26.241Z,95999
2018-05-26T11:23:57.556Z,96006
2018-05-26T11:26:28.887Z,96006
2018-05-26T11:29:00.070Z,96006
2018-05-26T11:31:32.909Z,96017
2018-05-26T11:34:04.451Z,96015
2018-05-26T11:36:35.598Z,96011
2018-05-26T11:39:07.318Z,96013
2018-05-26T11:41:38.325Z,96010
2018-05-26T11:44:09.914Z,96006
2018-05-26T11:46:40.963Z,96009
2018-05-26T11:49:12.088Z,96001
2018-05-26T11:51:43.145Z,96006
2018-05-26T11:54:14.363Z,96006
2018-05-26T11:56:45.564Z,96001
2018-05-26T11:59:17.697Z,95993
2018-05-26T12:01:48.933Z,95991
2018-05-26T12:04:19.918Z,95992
2018-05-26T12:06:51.066Z,95981
2018-05-26T12:09:22.269Z,95991
2018-05-26T12:11:53.384Z,95981
2018-05-26T12:14:24.645Z,95983
2018-05-26T12:16:55.740Z,95980
2018-05-26T12:19:26.789Z,95985
2018-05-26T12:21:58.343Z,95988
2018-05-26T12:24:29.280Z,95984
2018-05-26T12:27:00.476Z,95981
2018-05-26T12:29:31.642Z,95982
2018-05-26T12:32:03.088Z,95984
2018-05-26T12:34:34.255Z,95979
2018-05-26T12:37:05.455Z,95974
2018-05-26T12:39:37.093Z,95968
2018-05-26T12:42:08.369Z,95971
2018-05-26T12:44:39.527Z,95967
2018-05-26T12:47:10.585Z,95973
2018-05-26T12:49:41.861Z,95975
2018-05-26T12:52:13.049Z,95968
2018-05-26T12:54:44.191Z,95967
2018-05-26T12:57:16.138Z,95968
2018-05-26T12:59:47.428Z,95966
2018-05-26T13:02:18.573Z,95963
2018-05-26T13:04:49.685Z,95963
2018-05-26T13:07:20.774Z,95965
2018-05-26T13:09:52.107Z,95959
2018-05-26T13:12:23.218Z,95963
2018-05-26T13:14:55.033Z,95958
2018-05-26T13:17:26.207Z,95953
2018-05-26T13:19:57.280Z,95950
2018-05-26T13:22:28.394Z,95950
2018-05-26T13:24:59.395Z,95948
2018-05-26T13:27:30.625Z,95950
2018-05-26T13:30:02.307Z,95949
2018-05-26T13:32:33.584Z,95948
2018-05-26T13:35:05.502Z,95948
2018-05-26T13:37:36.739Z,95941
2018-05-26T13:40:07.813Z,95943
2018-05-26T13:42:39.590Z,95943
2018-05-26T13:45:11.169Z,95950
2018-05-26T13:47:43.427Z,95948
2018-05-26T13:50:16.164Z,95943
2018-05-26T13:52:47.600Z,95943
2018-05-26T13:55:20.782Z,95946
2018-05-26T13:57:51.952Z,95946
2018-05-26T14:00:24.214Z,95944
2018-05-26T14:02:55.277Z,95945
2018-05-26T14:05:26.455Z,95939
2018-05-26T14:07:57.553Z,95941
2018-05-26T14:10:28.663Z,95939
2018-05-26T14:13:00.147Z,95939
2018-05-26T14:15:31.246Z,95935
2018-05-26T14:18:02.586Z,95933
2018-05-26T14:20:33.742Z,95929
2018-05-26T14:23:05.308Z,95931
2018-05-26T14:25:36.337Z,95926
2018-05-26T14:28:07.514Z,95933
2018-05-26T14:30:38.518Z,95924
2018-05-26T14:33:09.709Z,95929
2018-05-26T14:35:40.689Z,95932
2018-05-26T14:38:11.962Z,95934
2018-05-26T14:40:43.233Z,95932
2018-05-26T14:43:14.687Z,95931
2018-05-26T14:45:45.802Z,95930
2018-05-26T14:48:17.134Z,95927
2018-05-26T14:50:48.370Z,95928
2018-05-26T14:53:19.570Z,95931
2018-05-26T14:55:50.846Z,95928
2018-05-26T14:58:22.336Z,95928
2018-05-26T15:00:53.517Z,95932
2018-05-26T15:03:25.192Z,95934
2018-05-26T15:05:58.428Z,95933
2018-05-26T15:08:32.722Z,95933
2018-05-26T15:11:05.741Z,95933
2018-05-26T15:13:36.735Z,95926
2018-05-26T15:16:08.125Z,95928
2018-05-26T15:18:40.080Z,95926
2018-05-26T15:21:13.886Z,95920
2018-05-26T15:23:46.267Z,95919
2018-05-26T15:26:17.557Z,95916
2018-05-26T15:28:48.509Z,95913
2018-05-26T15:31:19.647Z,95909
2018-05-26T15:33:50.673Z,95913
2018-05-26T15:36:21.985Z,95917
2018-05-26T15:38:52.986Z,95909
2018-05-26T15:41:24.298Z,95915
2018-05-26T15:43:55.614Z,95909
2018-05-26T15:46:27.024Z,95917
2018-05-26T15:48:58.303Z,95917
2018-05-26T15:51:35.373Z,95911
2018-05-26T15:54:09.215Z,95921
2018-05-26T15:56:40.349Z,95914
2018-05-26T15:59:11.829Z,95913
2018-05-26T16:01:44.275Z,95913
2018-05-26T16:04:16.366Z,95916
2018-05-26T16:06:48.667Z,95920
2018-05-26T16:09:20.166Z,95916
2018-05-26T16:11:51.137Z,95924
2018-05-26T16:14:22.309Z,95919
2018-05-26T16:16:53.710Z,95929
2018-05-26T16:19:26.365Z,95930
2018-05-26T16:21:57.950Z,95933
2018-05-26T16:24:30.112Z,95936
2018-05-26T16:27:02.233Z,95939
2018-05-26T16:29:33.836Z,95943
2018-05-26T16:32:05.159Z,95946
2018-05-26T16:34:36.713Z,95940
2018-05-26T16:37:08.565Z,95946
2018-05-26T16:39:40.111Z,95945
2018-05-26T16:42:11.341Z,95950
2018-05-26T16:44:42.921Z,95940
2018-05-26T16:47:14.835Z,95944
2018-05-26T16:49:46.177Z,95943
2018-05-26T16:52:18.229Z,95943
2018-05-26T16:54:49.765Z,95946
2018-05-26T16:57:22.018Z,95948
2018-05-26T16:59:53.381Z,95946
2018-05-26T17:02:25.479Z,95950
2018-05-26T17:04:56.905Z,95949
2018-05-26T17:07:28.225Z,95951
2018-05-26T17:09:59.589Z,95945
2018-05-26T17:12:31.238Z,95952
2018-05-26T17:15:03.091Z,95952
2018-05-26T17:17:34.283Z,95952
2018-05-26T17:20:06.165Z,95953
2018-05-26T17:22:37.824Z,95952
2018-05-26T17:25:08.949Z,95954
2018-05-26T17:27:40.515Z,95946
2018-05-26T17:30:12.436Z,95951
2018-05-26T17:32:43.894Z,95949
2018-05-26T17:35:15.446Z,95950
2018-05-26T17:37:47.702Z,95946
2018-05-26T17:40:19.776Z,95951
2018-05-26T17:42:51.279Z,95955
2018-05-26T17:45:23.171Z,95957
2018-05-26T17:47:54.783Z,95956
2018-05-26T17:50:26.449Z,95953
2018-05-26T17:52:58.474Z,95950
2018-05-26T17:55:30.769Z,95955
2018-05-26T17:58:02.363Z,95950
2018-05-26T18:00:35.067Z,95956
2018-05-26T18:03:07.632Z,95953
2018-05-26T18:05:38.837Z,95953
2018-05-26T18:08:10.059Z,95950
2018-05-26T18:10:42.297Z,95949
2018-05-26T18:13:13.421Z,95941
2018-05-26T18:15:44.798Z,95949
2018-05-26T18:18:16.005Z,95949
2018-05-26T18:20:47.418Z,95952
2018-05-26T18:23:19.774Z,95954
2018-05-26T18:25:52.818Z,95952
2018-05-26T18:28:26.504Z,95956
2018-05-26T18:30:58.777Z,95955
2018-05-26T18:33:30.061Z,95948
2018-05-26T18:36:01.163Z,95954
2018-05-26T18:38:32.300Z,95952
2018-05-26T18:41:03.648Z,95956
2018-05-26T18:43:35.051Z,95951
2018-05-26T18:46:06.483Z,95950
2018-05-26T18:48:38.079Z,95957
2018-05-26T18:51:09.837Z,95952
2018-05-26T18:53:41.112Z,95957
2018-05-26T18:56:12.812Z,95959
2018-05-26T18:58:44.143Z,95966
2018-05-26T19:01:16.336Z,95969
2018-05-26T19:03:49.006Z,95968
2018-05-26T19:06:20.354Z,95974
2018-05-26T19:08:52.034Z,95973
2018-05-26T19:11:23.438Z,95974
2018-05-26T19:13:55.103Z,95976
2018-05-26T19:16:26.259Z,95978
2018-05-26T19:18:57.525Z,95981
2018-05-26T19:21:29.047Z,95984
2018-05-26T19:24:00.333Z,95988
2018-05-26T19:26:31.858Z,95992
2018-05-26T19:29:03.010Z,95991
2018-05-26T19:31:34.660Z,95993
2018-05-26T19:34:05.719Z,95995
2018-05-26T19:36:36.837Z,96001
2018-05-26T19:39:07.964Z,96004
2018-05-26T19:41:39.181Z,96006
2018-05-26T19:44:10.458Z,96011
2018-05-26T19:46:41.504Z,96014
2018-05-26T19:49:12.745Z,96014
2018-05-26T19:51:43.956Z,96014
2018-05-26T19:54:15.584Z,96023
2018-05-26T19:56:47.290Z,96025
2018-05-26T19:59:18.405Z,96027
2018-05-26T20:01:50.032Z,96030
2018-05-26T20:04:21.277Z,96032
2018-05-26T20:06:52.788Z,96030
2018-05-26T20:09:23.945Z,96034
2018-05-26T20:11:55.218Z,96027
2018-05-26T20:14:26.804Z,96028
2018-05-26T20:16:58.499Z,96033
2018-05-26T20:19:29.738Z,96032
2018-05-26T20:22:01.060Z,96032
2018-05-26T20:24:33.089Z,96036
2018-05-26T20:27:04.620Z,96035
2018-05-26T20:29:36.032Z,96040
2018-05-26T20:32:07.505Z,96038
2018-05-26T20:34:38.993Z,96045
2018-05-26T20:37:10.387Z,96045
2018-05-26T20:39:41.568Z,96043
2018-05-26T20:42:12.924Z,96045
2018-05-26T20:44:44.030Z,96040
2018-05-26T20:47:15.204Z,96045
2018-05-26T20:49:46.338Z,96044
2018-05-26T20:52:17.606Z,96050
2018-05-26T20:54:49.021Z,96049
2018-05-26T20:57:20.216Z,96054
2018-05-26T20:59:56.284Z,96053
2018-05-26T21:02:29.262Z,96047
2018-05-26T21:05:00.609Z,96045
2018-05-26T21:07:31.890Z,96055
2018-05-26T21:10:03.183Z,96055
2018-05-26T21:12:34.424Z,96050
2018-05-26T21:15:05.537Z,96052
2018-05-26T21:17:37.150Z,96055
2018-05-26T21:20:08.341Z,96052
2018-05-26T21:22:39.591Z,96051
2018-05-26T21:25:10.846Z,96053
2018-05-26T21:27:41.998Z,96058
2018-05-26T21:30:13.301Z,96061
2018-05-26T21:32:44.577Z,96055
2018-05-26T21:35:15.729Z,96059
2018-05-26T21:37:46.771Z,96059
2018-05-26T21:40:17.900Z,96058
2018-05-26T21:42:49.154Z,96061
2018-05-26T21:45:20.368Z,96068
2018-05-26T21:47:52.823Z,96063
2018-05-26T21:50:23.995Z,96060
2018-05-26T21:52:55.307Z,96062
2018-05-26T21:55:26.410Z,96064
2018-05-26T21:57:57.760Z,96062
2018-05-26T22:00:29.957Z,96059
2018-05-26T22:03:01.250Z,96057
2018-05-26T22:05:32.694Z,96062
2018-05-26T22:08:03.886Z,96062
2018-05-26T22:10:35.054Z,96058
2018-05-26T22:13:06.382Z,96059
2018-05-26T22:15:37.693Z,96061
2018-05-26T22:18:09.002Z,96060
2018-05-26T22:20:40.322Z,96062
2018-05-26T22:23:11.588Z,96058
2018-05-26T22:25:43.342Z,96060
2018-05-26T22:28:15.030Z,96061
2018-05-26T22:30:46.278Z,96065
2018-05-26T22:33:17.388Z,96062
2018-05-26T22:35:48.570Z,96060
2018-05-26T22:38:19.858Z,96054
2018-05-26T22:40:51.469Z,96059
2018-05-26T22:43:22.643Z,96059
2018-05-26T22:45:53.839Z,96055
2018-05-26T22:48:25.072Z,96054
2018-05-26T22:50:56.362Z,96059
2018-05-26T22:53:27.532Z,96056
2018-05-26T22:55:58.686Z,96056
2018-05-26T22:58:29.928Z,96052
2018-05-26T23:01:01.248Z,96056
2018-05-26T23:03:32.430Z,96061
2018-05-26T23:06:03.735Z,96057
2018-05-26T23:08:34.981Z,96056
2018-05-26T23:11:06.309Z,96056
2018-05-26T23:13:37.506Z,96054
2018-05-26T23:16:08.603Z,96053
2018-05-26T23:18:39.881Z,96047
2018-05-26T23:21:10.969Z,96045
2018-05-26T23:23:42.221Z,96040
2018-05-26T23:26:14.106Z,96033
2018-05-26T23:28:45.275Z,96033
2018-05-26T23:31:16.531Z,96031
2018-05-26T23:33:47.814Z,96032
2018-05-26T23:36:19.029Z,96029
2018-05-26T23:38:50.125Z,96031
2018-05-26T23:41:21.469Z,96029
2018-05-26T23:43:52.557Z,96030
2018-05-26T23:46:23.807Z,96033
2018-05-26T23:48:54.945Z,96031
2018-05-26T23:51:26.438Z,96023
2018-05-26T23:53:57.735Z,96024
2018-05-26T23:56:28.905Z,96028
2018-05-26T23:59:00.177Z,96029
